Buoy 17652

sailwx.info

Track history (hours):
 
Tides and Currents Weather Stations Pressure Air Temp Water Temp Dewpoint Dewpoint Depression Visibility Wind Speed Wind Dir Waves Ship Positions

Drifting buoy 17652

Last reported at 2014-Sep-16 22:00 UTC. Time now 2014-Sep-17 01:27 UTC.
Position S 38°45' E 039°43'.

Water temperature 13.7 ° C

Date/timePositionNaut miles runAvg speedWind from/ knotsBaromVisibWave heightAir tempDewpointWater temp
2014-Sep-16 22:00S 38°45' E 039°43'2 1.6 13.7
2014-Sep-16 21:00S 38°47' E 039°42'2 0.7 13.7
2014-Sep-16 18:00S 38°49' E 039°41'7 1.3 14.1
2014-Sep-16 13:00S 38°55' E 039°38'0 0.0 13.8
2014-Sep-16 10:00S 38°55' E 039°38'3 0.7 14.0
2014-Sep-16 06:00S 38°57' E 039°37'1 1.5 14.0
2014-Sep-16 05:00S 38°58' E 039°39'0 0.0 14.1
2014-Sep-16 03:00S 38°58' E 039°39'1 0.5 14.2
2014-Sep-16 00:00S 38°59' E 039°39'2 2.1 14.2
2014-Sep-15 23:00S 39°01' E 039°40'7 1.3 14.2
2014-Sep-15 18:00S 39°07' E 039°36'6 1.6 14.4
2014-Sep-15 14:00S 39°13' E 039°33'2 1.8 14.5
2014-Sep-15 13:00S 39°15' E 039°33'0 0.0 14.5
2014-Sep-15 10:00S 39°15' E 039°33'3 0.9 14.5
2014-Sep-15 07:00S 39°17' E 039°34'1 0.8 14.6
2014-Sep-15 06:00S 39°18' E 039°34'2 1.8 14.6
2014-Sep-15 05:00S 39°20' E 039°34'0 0.0 14.6
2014-Sep-15 04:00S 39°20' E 039°34'2 0.7 14.6
2014-Sep-15 01:00S 39°22' E 039°33'1 1.3 14.6
2014-Sep-15 00:00S 39°23' E 039°34'1 0.7 14.6
2014-Sep-14 23:00S 39°24' E 039°34'3 1.3 14.6
2014-Sep-14 21:00S 39°26' E 039°33'0 0.0 14.6
2014-Sep-14 20:00S 39°26' E 039°33'2 0.5 14.6
2014-Sep-14 16:00S 39°28' E 039°32'1 1.3 14.6
2014-Sep-14 15:00S 39°29' E 039°32'1 0.7 14.6
2014-Sep-14 14:00S 39°30' E 039°32'2 1.9 14.7
2014-Sep-14 13:00S 39°32' E 039°31'0 0.0 14.6
2014-Sep-14 11:00S 39°32' E 039°31'3 1.7 14.6
2014-Sep-14 09:00S 39°35' E 039°30'2 0.8 14.5
2014-Sep-14 07:00S 39°36' E 039°29'0 0.0 14.5
2014-Sep-14 06:00S 39°36' E 039°29'1 0.8 14.5
2014-Sep-14 05:00S 39°37' E 039°29'2 1.7 14.5
2014-Sep-14 04:00S 39°38' E 039°27'0 0.1 14.5
2014-Sep-14 03:00S 39°38' E 039°27'3 1.7 14.5
2014-Sep-14 01:00S 39°40' E 039°24'1 0.3 14.5
2014-Sep-13 23:00S 39°40' E 039°23'2 1.2 14.4
2014-Sep-13 21:00S 39°41' E 039°20'1 0.4 14.5
2014-Sep-13 19:00S 39°41' E 039°19'2 2.0 14.3
2014-Sep-13 18:00S 39°42' E 039°16'0 0.0 14.3
2014-Sep-13 17:00S 39°42' E 039°16'1 0.3 14.2
2014-Sep-13 15:00S 39°42' E 039°16'1 0.7 13.8
2014-Sep-13 14:00S 39°43' E 039°16'20 2.2 14.0
2014-Sep-13 05:00S 40°01' E 039°07'12 3.1 14.3
2014-Sep-13 01:00S 40°12' E 038°60'0 0.0 14.5
2014-Sep-13 00:00S 40°12' E 038°60'0 0.0 14.6
2014-Sep-12 22:00S 40°12' E 038°60'8 1.6 14.6
2014-Sep-12 17:00S 40°19' E 038°54'18 9.2 14.6
2014-Sep-12 15:00S 40°31' E 038°36'0 0.0 14.7
2014-Sep-12 13:00S 40°31' E 038°36'0 0.0 14.7
2014-Sep-12 12:00S 40°31' E 038°36'0 0.0 14.7
2014-Sep-12 09:00S 40°31' E 038°36'0 0.0 14.7
2014-Sep-12 07:00S 40°31' E 038°36'7 6.6 14.6
2014-Sep-12 06:00S 40°35' E 038°29'0 0.0 14.7
2014-Sep-12 05:00S 40°35' E 038°29'0 0.1 14.7
2014-Sep-12 02:00S 40°35' E 038°29'30 2.5 14.7
2014-Sep-11 14:00S 40°41' E 037°50'0 0.0 15.1
2014-Sep-11 10:00S 40°41' E 037°50'0 0.0 15.2
2014-Sep-11 09:00S 40°41' E 037°50'0 0.0 15.2
2014-Sep-11 06:00S 40°41' E 037°50'0 0.0 15.1
2014-Sep-11 02:00S 40°41' E 037°50'0 0.0 15.2
2014-Sep-11 01:00S 40°41' E 037°50'5 0.7 15.2
2014-Sep-10 18:00S 40°39' E 037°44'12 2.9 15.2
2014-Sep-10 14:00S 40°35' E 037°30'0 0.0 15.2
2014-Sep-10 06:00S 40°35' E 037°30'0 0.0 15.2
2014-Sep-10 03:00S 40°35' E 037°30'9 1.9 15.1
2014-Sep-09 22:00S 40°30' E 037°20'0 0.0 15.1
2014-Sep-09 19:00S 40°30' E 037°20'0 0.0 15.1
2014-Sep-09 16:00S 40°30' E 037°20'0 0.0 15.1
2014-Sep-09 15:00S 40°30' E 037°20'10 1.6 15.1
2014-Sep-09 09:00S 40°21' E 037°14'0 0.0 15.1
2014-Sep-09 08:00S 40°21' E 037°14'0 0.0 15.0
2014-Sep-09 06:00S 40°21' E 037°14'0 0.0 15.0
2014-Sep-09 00:00S 40°21' E 037°14'2 1.0 15.0
2014-Sep-08 22:00S 40°20' E 037°13'4 1.0 15.0
2014-Sep-08 18:00S 40°16' E 037°11'2 0.3 15.1
2014-Sep-08 13:00S 40°14' E 037°12'9 1.4 15.2
2014-Sep-08 06:00S 40°05' E 037°09'0 0.0 15.3
2014-Sep-08 02:00S 40°05' E 037°09'9 2.2 15.4
2014-Sep-07 22:00S 39°57' E 037°05'0 0.0 15.5
2014-Sep-07 19:00S 39°57' E 037°05'4 0.9 15.6
2014-Sep-07 14:00S 39°52' E 037°06'5 4.6 15.6
2014-Sep-07 13:00S 39°48' E 037°06'0 0.0 15.7
2014-Sep-07 10:00S 39°48' E 037°06'14 4.7 15.9
2014-Sep-07 07:00S 39°34' E 037°10'0 0.0 15.5
2014-Sep-07 03:00S 39°34' E 037°10'0 0.0 15.5
2014-Sep-07 02:00S 39°34' E 037°10'9 4.3 15.6
2014-Sep-07 00:00S 39°25' E 037°12'5 5.0 15.6
2014-Sep-06 23:00S 39°21' E 037°13'0 0.0 15.6
2014-Sep-06 22:00S 39°21' E 037°13'   15.6
Track history (hours):
 
Tides and Currents Weather Stations Pressure Air Temp Water Temp Dewpoint Dewpoint Depression Visibility Wind Speed Wind Dir Waves Ship Positions

Drifting buoy 17652

Last reported at 2014-Sep-16 22:00 UTC. Time now 2014-Sep-17 01:27 UTC.
Position S 38°45' E 039°43'.

Water temperature 13.7 ° C

Date/timePositionNaut miles runAvg speedWind from/ knotsBaromVisibWave heightAir tempDewpointWater temp
2014-Sep-16 22:00S 38°45' E 039°43'2 1.6 13.7
2014-Sep-16 21:00S 38°47' E 039°42'2 0.7 13.7
2014-Sep-16 18:00S 38°49' E 039°41'7 1.3 14.1
2014-Sep-16 13:00S 38°55' E 039°38'0 0.0 13.8
2014-Sep-16 10:00S 38°55' E 039°38'3 0.7 14.0
2014-Sep-16 06:00S 38°57' E 039°37'1 1.5 14.0
2014-Sep-16 05:00S 38°58' E 039°39'0 0.0 14.1
2014-Sep-16 03:00S 38°58' E 039°39'1 0.5 14.2
2014-Sep-16 00:00S 38°59' E 039°39'2 2.1 14.2
2014-Sep-15 23:00S 39°01' E 039°40'7 1.3 14.2
2014-Sep-15 18:00S 39°07' E 039°36'6 1.6 14.4
2014-Sep-15 14:00S 39°13' E 039°33'2 1.8 14.5
2014-Sep-15 13:00S 39°15' E 039°33'0 0.0 14.5
2014-Sep-15 10:00S 39°15' E 039°33'3 0.9 14.5
2014-Sep-15 07:00S 39°17' E 039°34'1 0.8 14.6
2014-Sep-15 06:00S 39°18' E 039°34'2 1.8 14.6
2014-Sep-15 05:00S 39°20' E 039°34'0 0.0 14.6
2014-Sep-15 04:00S 39°20' E 039°34'2 0.7 14.6
2014-Sep-15 01:00S 39°22' E 039°33'1 1.3 14.6
2014-Sep-15 00:00S 39°23' E 039°34'1 0.7 14.6
2014-Sep-14 23:00S 39°24' E 039°34'3 1.3 14.6
2014-Sep-14 21:00S 39°26' E 039°33'0 0.0 14.6
2014-Sep-14 20:00S 39°26' E 039°33'2 0.5 14.6
2014-Sep-14 16:00S 39°28' E 039°32'1 1.3 14.6
2014-Sep-14 15:00S 39°29' E 039°32'1 0.7 14.6
2014-Sep-14 14:00S 39°30' E 039°32'2 1.9 14.7
2014-Sep-14 13:00S 39°32' E 039°31'0 0.0 14.6
2014-Sep-14 11:00S 39°32' E 039°31'3 1.7 14.6
2014-Sep-14 09:00S 39°35' E 039°30'2 0.8 14.5
2014-Sep-14 07:00S 39°36' E 039°29'0 0.0 14.5
2014-Sep-14 06:00S 39°36' E 039°29'1 0.8 14.5
2014-Sep-14 05:00S 39°37' E 039°29'2 1.7 14.5
2014-Sep-14 04:00S 39°38' E 039°27'0 0.1 14.5
2014-Sep-14 03:00S 39°38' E 039°27'3 1.7 14.5
2014-Sep-14 01:00S 39°40' E 039°24'1 0.3 14.5
2014-Sep-13 23:00S 39°40' E 039°23'2 1.2 14.4
2014-Sep-13 21:00S 39°41' E 039°20'1 0.4 14.5
2014-Sep-13 19:00S 39°41' E 039°19'2 2.0 14.3
2014-Sep-13 18:00S 39°42' E 039°16'0 0.0 14.3
2014-Sep-13 17:00S 39°42' E 039°16'1 0.3 14.2
2014-Sep-13 15:00S 39°42' E 039°16'1 0.7 13.8
2014-Sep-13 14:00S 39°43' E 039°16'20 2.2 14.0
2014-Sep-13 05:00S 40°01' E 039°07'12 3.1 14.3
2014-Sep-13 01:00S 40°12' E 038°60'0 0.0 14.5
2014-Sep-13 00:00S 40°12' E 038°60'0 0.0 14.6
2014-Sep-12 22:00S 40°12' E 038°60'8 1.6 14.6
2014-Sep-12 17:00S 40°19' E 038°54'18 9.2 14.6
2014-Sep-12 15:00S 40°31' E 038°36'0 0.0 14.7
2014-Sep-12 13:00S 40°31' E 038°36'0 0.0 14.7
2014-Sep-12 12:00S 40°31' E 038°36'0 0.0 14.7
2014-Sep-12 09:00S 40°31' E 038°36'0 0.0 14.7
2014-Sep-12 07:00S 40°31' E 038°36'7 6.6 14.6
2014-Sep-12 06:00S 40°35' E 038°29'0 0.0 14.7
2014-Sep-12 05:00S 40°35' E 038°29'0 0.1 14.7
2014-Sep-12 02:00S 40°35' E 038°29'30 2.5 14.7
2014-Sep-11 14:00S 40°41' E 037°50'0 0.0 15.1
2014-Sep-11 10:00S 40°41' E 037°50'0 0.0 15.2
2014-Sep-11 09:00S 40°41' E 037°50'0 0.0 15.2
2014-Sep-11 06:00S 40°41' E 037°50'0 0.0 15.1
2014-Sep-11 02:00S 40°41' E 037°50'0 0.0 15.2
2014-Sep-11 01:00S 40°41' E 037°50'5 0.7 15.2
2014-Sep-10 18:00S 40°39' E 037°44'12 2.9 15.2
2014-Sep-10 14:00S 40°35' E 037°30'0 0.0 15.2
2014-Sep-10 06:00S 40°35' E 037°30'0 0.0 15.2
2014-Sep-10 03:00S 40°35' E 037°30'9 1.9 15.1
2014-Sep-09 22:00S 40°30' E 037°20'0 0.0 15.1
2014-Sep-09 19:00S 40°30' E 037°20'0 0.0 15.1
2014-Sep-09 16:00S 40°30' E 037°20'0 0.0 15.1
2014-Sep-09 15:00S 40°30' E 037°20'10 1.6 15.1
2014-Sep-09 09:00S 40°21' E 037°14'0 0.0 15.1
2014-Sep-09 08:00S 40°21' E 037°14'0 0.0 15.0
2014-Sep-09 06:00S 40°21' E 037°14'0 0.0 15.0
2014-Sep-09 00:00S 40°21' E 037°14'2 1.0 15.0
2014-Sep-08 22:00S 40°20' E 037°13'4 1.0 15.0
2014-Sep-08 18:00S 40°16' E 037°11'2 0.3 15.1
2014-Sep-08 13:00S 40°14' E 037°12'9 1.4 15.2
2014-Sep-08 06:00S 40°05' E 037°09'0 0.0 15.3
2014-Sep-08 02:00S 40°05' E 037°09'9 2.2 15.4
2014-Sep-07 22:00S 39°57' E 037°05'0 0.0 15.5
2014-Sep-07 19:00S 39°57' E 037°05'4 0.9 15.6
2014-Sep-07 14:00S 39°52' E 037°06'5 4.6 15.6
2014-Sep-07 13:00S 39°48' E 037°06'0 0.0 15.7
2014-Sep-07 10:00S 39°48' E 037°06'14 4.7 15.9
2014-Sep-07 07:00S 39°34' E 037°10'0 0.0 15.5
2014-Sep-07 03:00S 39°34' E 037°10'0 0.0 15.5
2014-Sep-07 02:00S 39°34' E 037°10'9 4.3 15.6
2014-Sep-07 00:00S 39°25' E 037°12'5 5.0 15.6
2014-Sep-06 23:00S 39°21' E 037°13'0 0.0 15.6
2014-Sep-06 22:00S 39°21' E 037°13'   15.6

Dump ship's entire track history